»·PEaware :: N927ER KAWO-KOLM

N927ER :: KAWO-KOLM

FLIGHT INFORMATION

Flight Status: Arrived
Operator: Privately registered:
United States
More flights under this callsign
Pilot: Robert C. (14767)
Aircraft: CESSNA 182 SKYLANE
(C182)
More flights by this aircraft type
Origin: KAWO Arlington Mun
United States
Destination: KOLM Olympia
United States
More flights between these airports :: More routes between these airports
Route: +PAE V287 OLM
File this flight plan on PilotEdge
Remarks:
Altitude:
(Current/Filed)
6,000ft
Speed:
(Current/Filed)
140kts
Departed: 18-Apr-18 05:44 PM
Arrived: 18-Apr-18 06:36 PM
Distance/Time
Traveled:
77nm/0:52
Distance/Time
To Go:
Arrived

Flight Plot

Page will automatically refresh every two minutes.

Flight plan parsing failed; only flown route is shown


Map Options




Map Legend


Flown Route
Filed Route
Departure Airport
Arrival Airport
Navaid (VOR, NDB)
Fix

Horizontal Profiles

Position Reports

Time Latitude Longitude Heading Altitude Ground
Speed
18-Apr-18 17:29 48.156184 -122.160168 307 126ft 0kts
18-Apr-18 17:30 48.156184 -122.160168 307 126ft 0kts
18-Apr-18 17:31 48.156184 -122.160168 307 126ft 0kts
18-Apr-18 17:32 48.156184 -122.160168 307 126ft 0kts
18-Apr-18 17:33 48.156184 -122.160168 307 126ft 0kts
18-Apr-18 17:34 48.156184 -122.160168 307 126ft 0kts
18-Apr-18 17:35 48.156184 -122.160168 307 126ft 0kts
18-Apr-18 17:36 48.156184 -122.160168 307 126ft 0kts
18-Apr-18 17:37 48.156184 -122.160168 307 126ft 0kts
18-Apr-18 17:38 48.156184 -122.160168 307 126ft 0kts
18-Apr-18 17:39 48.156184 -122.160168 307 126ft 0kts
18-Apr-18 17:40 48.156184 -122.160168 307 126ft 0kts
18-Apr-18 17:41 48.156184 -122.160168 307 126ft 0kts
18-Apr-18 17:42 48.154847 -122.156182 358 125ft 0kts
18-Apr-18 17:43 48.162593 -122.156403 0 252ft 92kts
18-Apr-18 17:44 48.185061 -122.163092 304 1634ft 91kts
18-Apr-18 17:45 48.171638 -122.187935 197 2837ft 95kts
18-Apr-18 17:46 48.145884 -122.202262 190 3953ft 102kts
18-Apr-18 17:47 48.117916 -122.208967 187 5024ft 104kts
18-Apr-18 17:48 48.089346 -122.218909 194 5895ft 117kts
18-Apr-18 17:49 48.054575 -122.233431 194 5980ft 134kts
18-Apr-18 17:50 48.018238 -122.246275 192 6037ft 133kts
18-Apr-18 17:51 47.982496 -122.260590 187 6000ft 134kts
18-Apr-18 17:52 47.946017 -122.271713 187 6061ft 134kts
18-Apr-18 17:53 47.917773 -122.300352 258 6071ft 136kts
18-Apr-18 17:54 47.906067 -122.353698 252 6047ft 138kts
18-Apr-18 17:55 47.900552 -122.409686 258 6032ft 137kts
18-Apr-18 17:56 47.890354 -122.464265 258 6024ft 136kts
18-Apr-18 17:57 47.880383 -122.518765 255 6003ft 136kts
18-Apr-18 17:58 47.869669 -122.573086 254 5988ft 136kts
18-Apr-18 17:59 47.860993 -122.627982 259 5988ft 136kts
18-Apr-18 18:00 47.853527 -122.683292 256 5982ft 136kts
18-Apr-18 18:01 47.842915 -122.737352 256 5979ft 136kts
18-Apr-18 18:02 47.826027 -122.784384 194 5964ft 136kts
18-Apr-18 18:03 47.788738 -122.793548 192 5949ft 137kts
18-Apr-18 18:04 47.751466 -122.800312 182 5970ft 136kts
18-Apr-18 18:05 47.713596 -122.799378 182 5969ft 136kts
18-Apr-18 18:06 47.675901 -122.802152 184 5973ft 136kts
18-Apr-18 18:07 47.638192 -122.806430 187 5972ft 136kts
18-Apr-18 18:08 47.600899 -122.814954 191 5986ft 136kts
18-Apr-18 18:09 47.563321 -122.821805 186 5990ft 136kts
18-Apr-18 18:10 47.525957 -122.829819 188 5999ft 136kts
18-Apr-18 18:11 47.488449 -122.836550 185 6002ft 136kts
18-Apr-18 18:12 47.450797 -122.836481 186 5994ft 137kts
18-Apr-18 18:13 47.413314 -122.842316 180 6013ft 136kts
18-Apr-18 18:14 47.375465 -122.844408 184 5988ft 137kts
18-Apr-18 18:15 47.338646 -122.851965 180 5949ft 140kts
18-Apr-18 18:16 47.298786 -122.850463 178 5628ft 144kts
18-Apr-18 18:23 47.285013 -122.851179 189 5503ft 146kts
18-Apr-18 18:24 47.248454 -122.860439 187 5260ft 149kts
18-Apr-18 18:25 47.206530 -122.866133 189 4650ft 151kts
18-Apr-18 18:26 47.165229 -122.875707 189 4074ft 150kts
18-Apr-18 18:27 47.125566 -122.883838 187 3946ft 137kts
18-Apr-18 18:28 47.088253 -122.888003 179 3965ft 132kts
18-Apr-18 18:29 47.051258 -122.886326 177 3941ft 134kts
18-Apr-18 18:30 47.014873 -122.898082 203 3573ft 146kts
18-Apr-18 18:31 46.977680 -122.920022 201 2517ft 140kts
18-Apr-18 18:32 46.939836 -122.934884 189 1214ft 128kts
18-Apr-18 18:33 46.929789 -122.914420 12 847ft 88kts
18-Apr-18 18:34 46.954445 -122.908965 12 358ft 70kts
18-Apr-18 18:35 46.969529 -122.904590 10 192ft 0kts
18-Apr-18 18:36 46.972948 -122.903618 15 190ft 17kts

Navigation Log

Ident Type
Flight plan parsing failed, navigation log unavailable